Ronda, Spain
Current Conditions -  °F | °C
As of 9:30 AM on Friday 28 Nov 2014 (Local Time) from LEMG Reporting Station
Broken Clouds Broken Clouds  
Wind Chill: 61°   Ceiling: 5000
Heat Index: 61°   Visibility: 6mi
Dew Point: 54°   Wind: 8mph
Humidity: 77%   Direction: 140°SE
Pressure: 29.12"   Gusts: 21mph
Location:  36.74°N, 5.17°W
Report Text: LEMG 280830Z 14007G18KT 110V190 9999 FEW005 SCT030 BKN05016/12 Q0986 NOSIG
Loading
Personal Weather Stations






























Interactive Weather Map New forecast layout! Learn more

10-Day Weather Forecast

Advertisements
Track Severe Weather on mobile